Time;durP1;ratioP1;P1;durP2;ratioP2;P2;SDS_P1;SDS_P2;PMS_P1;PMS_P2;Temp;Humidity;BMP_temperature;BMP_pressure;BME280_temperature;BME280_humidity;BME280_pressure;Samples;Min_cycle;Max_cycle;Signal;HPM_P1;HPM_P2
2023/06/19 00:00:12;;;;;;;6.15;3.60;;;20.50;99.90;;;;;;5002925;28;20041;-68
2023/06/19 00:02:42;;;;;;;5.40;3.92;;;20.40;99.90;;;;;;5006347;28;20029;-68
2023/06/19 00:05:09;;;;;;;5.63;4.55;;;20.50;99.90;;;;;;5006925;28;20184;-67
2023/06/19 00:07:37;;;;;;;10.68;4.30;;;20.50;99.90;;;;;;4997637;28;20615;-67
2023/06/19 00:10:04;;;;;;;6.85;4.07;;;20.40;99.90;;;;;;5001849;28;20022;-67
2023/06/19 00:12:29;;;;;;;6.13;4.13;;;20.50;99.90;;;;;;5001786;28;20037;-68
2023/06/19 00:14:55;;;;;;;4.22;3.47;;;20.50;99.90;;;;;;4997637;28;20026;-67
2023/06/19 00:17:20;;;;;;;8.23;4.65;;;20.40;99.90;;;;;;4990608;28;20040;-67
2023/06/19 00:19:48;;;;;;;5.55;4.13;;;20.40;99.90;;;;;;5008878;28;20022;-68
2023/06/19 00:22:14;;;;;;;6.63;4.40;;;20.30;99.90;;;;;;5002975;28;20025;-67
2023/06/19 00:24:40;;;;;;;9.15;4.80;;;20.20;99.90;;;;;;5005302;28;20080;-68
2023/06/19 00:27:06;;;;;;;7.72;4.78;;;20.10;99.90;;;;;;5008164;28;21136;-68
2023/06/19 00:29:32;;;;;;;11.60;4.78;;;20.10;99.90;;;;;;5001319;28;20034;-68
2023/06/19 00:31:59;;;;;;;6.03;4.75;;;20.00;99.90;;;;;;5011309;28;20037;-68
2023/06/19 00:34:25;;;;;;;7.45;4.05;;;20.10;99.90;;;;;;5014200;28;20052;-68
2023/06/19 00:36:55;;;;;;;6.40;4.10;;;20.10;99.90;;;;;;5000202;28;20443;-68
2023/06/19 00:39:27;;;;;;;11.55;4.47;;;20.10;99.90;;;;;;5009741;28;20026;-67
2023/06/19 00:41:54;;;;;;;4.75;3.92;;;20.10;99.90;;;;;;5002584;28;20033;-68
2023/06/19 00:44:19;;;;;;;5.97;4.88;;;20.00;99.90;;;;;;5010093;28;20117;-68
2023/06/19 00:46:45;;;;;;;4.45;3.80;;;20.10;99.90;;;;;;5012954;28;20116;-67
2023/06/19 00:49:11;;;;;;;7.70;4.32;;;20.10;99.90;;;;;;5006480;28;20425;-67
2023/06/19 00:51:38;;;;;;;6.05;4.60;;;20.10;99.90;;;;;;5013255;28;20049;-68
2023/06/19 00:54:04;;;;;;;6.30;5.05;;;20.20;99.90;;;;;;5007086;28;20032;-67
2023/06/19 00:56:31;;;;;;;6.35;4.40;;;20.20;99.90;;;;;;5013654;28;20485;-68
2023/06/19 00:58:56;;;;;;;5.18;4.47;;;20.10;99.90;;;;;;5007276;28;20175;-68
2023/06/19 01:01:23;;;;;;;6.43;3.95;;;20.10;99.90;;;;;;5002222;28;20069;-67
2023/06/19 01:03:49;;;;;;;7.57;4.60;;;20.10;99.90;;;;;;5004681;28;20073;-68
2023/06/19 01:06:21;;;;;;;6.25;4.78;;;20.10;99.90;;;;;;5010322;28;20026;-68
2023/06/19 01:09:02;;;;;;;9.38;4.78;;;20.10;99.90;;;;;;5010533;28;20507;-68
2023/06/19 01:11:46;;;;;;;7.75;5.30;;;20.00;99.90;;;;;;5003427;28;20049;-68
2023/06/19 01:14:35;;;;;;;6.53;4.80;;;19.90;99.90;;;;;;4994312;28;20049;-68
2023/06/19 01:17:02;;;;;;;10.52;5.22;;;19.90;99.90;;;;;;5000608;28;20502;-68
2023/06/19 01:19:28;;;;;;;6.18;5.07;;;19.90;99.90;;;;;;5003709;28;20026;-68
2023/06/19 01:21:54;;;;;;;6.85;4.75;;;19.90;99.90;;;;;;5001265;28;20401;-67
2023/06/19 01:24:19;;;;;;;7.50;4.70;;;20.00;99.90;;;;;;4982091;28;20033;-67
2023/06/19 01:26:45;;;;;;;8.18;5.35;;;20.00;99.90;;;;;;4968286;28;20041;-67
2023/06/19 01:29:13;;;;;;;6.00;4.45;;;20.10;99.90;;;;;;4987149;28;20092;-67
2023/06/19 01:31:50;;;;;;;7.57;5.25;;;20.00;99.90;;;;;;4991929;28;20075;-68
2023/06/19 01:34:19;;;;;;;6.43;4.75;;;20.10;99.90;;;;;;4989651;28;20109;-67
2023/06/19 01:36:47;;;;;;;6.80;5.47;;;20.10;99.90;;;;;;4991276;28;20053;-67
2023/06/19 01:39:15;;;;;;;6.88;5.55;;;20.00;99.90;;;;;;4999461;28;20048;-69
2023/06/19 01:41:42;;;;;;;7.05;5.22;;;19.90;99.90;;;;;;5003716;28;20738;-68
2023/06/19 01:44:08;;;;;;;6.70;4.57;;;19.90;99.90;;;;;;5008563;28;20030;-68
2023/06/19 01:46:34;;;;;;;8.85;5.97;;;19.80;99.90;;;;;;5003622;28;20054;-67
2023/06/19 01:49:00;;;;;;;10.10;5.10;;;19.70;99.90;;;;;;5001410;28;20030;-68
2023/06/19 01:51:25;;;;;;;7.20;5.32;;;19.60;99.90;;;;;;5007149;28;20105;-68
2023/06/19 01:53:51;;;;;;;9.73;5.65;;;19.60;99.90;;;;;;5006197;28;20060;-68
2023/06/19 01:56:17;;;;;;;5.93;4.80;;;19.60;99.90;;;;;;5010311;28;20052;-67
2023/06/19 01:58:42;;;;;;;9.00;5.35;;;19.50;99.90;;;;;;5003063;28;20070;-67
2023/06/19 02:01:08;;;;;;;7.28;5.10;;;19.50;99.90;;;;;;5013571;28;20033;-67
2023/06/19 02:03:33;;;;;;;6.30;4.65;;;19.50;99.90;;;;;;5017694;28;20053;-68
2023/06/19 02:05:59;;;;;;;8.13;4.88;;;19.50;99.90;;;;;;5024871;28;20415;-68
2023/06/19 02:08:24;;;;;;;8.02;4.80;;;19.50;99.90;;;;;;5017668;28;20099;-68
2023/06/19 02:10:50;;;;;;;7.15;5.20;;;19.50;99.90;;;;;;5005999;28;20026;-68
2023/06/19 02:13:16;;;;;;;6.68;5.05;;;19.50;99.90;;;;;;5000573;28;20036;-69
2023/06/19 02:15:41;;;;;;;9.25;5.80;;;19.60;99.90;;;;;;5018243;28;20479;-69
2023/06/19 02:18:08;;;;;;;7.00;5.18;;;19.60;99.90;;;;;;5010515;28;20402;-68
2023/06/19 02:20:34;;;;;;;6.05;4.80;;;19.60;99.90;;;;;;5016561;28;20033;-69
2023/06/19 02:22:59;;;;;;;8.38;5.10;;;19.60;99.90;;;;;;4998924;28;20036;-68
2023/06/19 02:25:25;;;;;;;6.70;4.65;;;19.70;99.90;;;;;;5014023;28;20037;-69
2023/06/19 02:27:50;;;;;;;7.32;4.40;;;19.70;99.90;;;;;;5000602;28;20026;-69
2023/06/19 02:30:16;;;;;;;6.75;5.40;;;19.80;99.90;;;;;;5010042;28;20111;-69
2023/06/19 02:32:42;;;;;;;8.70;4.88;;;19.80;99.90;;;;;;5017048;28;20034;-67
2023/06/19 02:41:38;;;;;;;6.95;5.18;;;19.90;99.90;;;;;;4989551;28;20537;-66
2023/06/19 02:44:03;;;;;;;;;;;19.90;99.90;;;;;;4984591;28;20037;-64
2023/06/19 02:46:29;;;;;;;7.30;4.80;;;19.80;99.90;;;;;;4983958;28;20283;-64
2023/06/19 02:48:54;;;;;;;6.53;4.97;;;19.80;99.90;;;;;;4982764;28;20085;-64
2023/06/19 02:51:20;;;;;;;9.60;5.53;;;19.80;99.90;;;;;;4982683;28;20403;-64
2023/06/19 02:53:45;;;;;;;7.82;5.57;;;19.70;99.90;;;;;;4986131;28;20400;-65
2023/06/19 02:56:12;;;;;;;8.90;4.70;;;19.60;99.90;;;;;;4988842;28;20222;-64
2023/06/19 02:58:38;;;;;;;6.85;4.93;;;19.60;99.90;;;;;;4984501;28;20023;-65
2023/06/19 03:01:06;;;;;;;6.70;5.05;;;19.60;99.90;;;;;;4990159;28;20034;-64
2023/06/19 03:03:37;;;;;;;7.40;5.80;;;19.60;99.90;;;;;;4984436;28;20088;-65
2023/06/19 03:06:06;;;;;;;7.03;4.97;;;19.60;99.90;;;;;;4987499;28;20041;-64
2023/06/19 03:08:36;;;;;;;7.63;5.32;;;19.50;99.90;;;;;;4985255;28;20030;-64
2023/06/19 03:11:04;;;;;;;7.97;5.68;;;19.50;99.90;;;;;;4987168;28;20380;-64
2023/06/19 03:13:43;;;;;;;6.38;4.50;;;19.40;99.90;;;;;;4986311;28;20029;-64
2023/06/19 03:16:08;;;;;;;6.45;4.45;;;19.30;99.90;;;;;;4982971;28;20022;-65
2023/06/19 03:18:34;;;;;;;9.27;4.97;;;19.30;99.90;;;;;;4988293;28;20390;-64
2023/06/19 03:20:59;;;;;;;6.85;5.28;;;19.20;99.90;;;;;;4989690;28;20435;-64
2023/06/19 03:23:25;;;;;;;11.00;4.82;;;19.30;99.90;;;;;;4985917;28;20405;-63
2023/06/19 03:25:51;;;;;;;5.90;4.63;;;19.20;99.90;;;;;;4986823;28;20410;-63
2023/06/19 03:28:16;;;;;;;9.40;5.80;;;19.30;99.90;;;;;;4983702;28;20494;-62
2023/06/19 03:30:42;;;;;;;6.63;4.90;;;19.20;99.90;;;;;;4979740;28;20466;-60
2023/06/19 03:33:07;;;;;;;9.95;4.70;;;19.30;99.90;;;;;;4988175;28;20070;-65
2023/06/19 03:35:33;;;;;;;9.68;5.05;;;19.30;99.90;;;;;;4985852;28;20647;-63
2023/06/19 03:37:58;;;;;;;6.13;4.68;;;19.30;99.90;;;;;;4988773;28;20110;-61
2023/06/19 03:40:24;;;;;;;6.75;5.65;;;19.30;99.90;;;;;;4986988;28;20058;-68
2023/06/19 03:42:49;;;;;;;6.72;5.00;;;19.40;99.90;;;;;;4986274;28;20061;-63
2023/06/19 03:45:15;;;;;;;7.35;4.45;;;19.40;99.90;;;;;;4986703;28;20062;-64
2023/06/19 03:47:40;;;;;;;5.35;4.35;;;19.50;99.90;;;;;;4987898;28;20377;-63
2023/06/19 03:50:09;;;;;;;9.45;4.78;;;19.50;99.90;;;;;;4987567;28;20439;-63
2023/06/19 03:52:36;;;;;;;7.00;4.80;;;19.50;99.90;;;;;;4987925;28;20027;-64
2023/06/19 03:55:03;;;;;;;5.88;4.47;;;19.60;99.90;;;;;;4984209;28;20037;-64
2023/06/19 03:57:29;;;;;;;8.52;5.50;;;19.60;99.90;;;;;;4984061;28;20062;-64
2023/06/19 03:59:54;;;;;;;5.55;4.35;;;19.60;99.90;;;;;;4984585;28;20073;-64
2023/06/19 04:02:20;;;;;;;8.10;4.60;;;19.70;99.90;;;;;;4987515;28;20054;-64
2023/06/19 04:04:47;;;;;;;5.93;4.75;;;19.70;99.90;;;;;;4985213;28;20101;-63
2023/06/19 04:07:13;;;;;;;6.10;4.40;;;19.80;99.90;;;;;;4990337;28;20030;-63
2023/06/19 04:09:39;;;;;;;6.28;4.78;;;19.90;99.90;;;;;;4992549;28;20038;-64
2023/06/19 04:12:05;;;;;;;7.55;4.18;;;20.00;99.90;;;;;;4991015;28;20057;-64
2023/06/19 04:14:30;;;;;;;6.25;5.15;;;20.10;99.90;;;;;;4977546;28;20149;-64
2023/06/19 04:16:56;;;;;;;6.20;4.53;;;20.10;99.90;;;;;;4992454;28;20452;-65
2023/06/19 04:19:21;;;;;;;7.00;4.68;;;20.20;99.90;;;;;;4990162;28;20034;-65
2023/06/19 04:21:47;;;;;;;11.05;4.85;;;20.30;99.90;;;;;;4990883;28;20065;-64
2023/06/19 04:24:12;;;;;;;7.97;4.47;;;20.30;99.90;;;;;;4984484;28;20447;-62
2023/06/19 04:26:38;;;;;;;6.85;4.10;;;20.50;99.90;;;;;;4990029;28;20419;-66
2023/06/19 04:29:05;;;;;;;7.07;4.60;;;20.50;99.90;;;;;;4987894;28;20023;-65
2023/06/19 04:31:30;;;;;;;8.15;4.63;;;20.60;99.90;;;;;;4989577;28;20426;-65
2023/06/19 04:33:56;;;;;;;6.57;5.20;;;20.70;99.90;;;;;;4990201;28;20038;-63
2023/06/19 04:36:22;;;;;;;6.25;4.25;;;20.70;99.90;;;;;;4986312;28;20023;-65
2023/06/19 04:38:51;;;;;;;6.30;4.20;;;20.80;99.90;;;;;;4991920;28;20030;-65
2023/06/19 04:41:17;;;;;;;5.18;3.95;;;20.90;99.90;;;;;;4989703;28;20065;-66
2023/06/19 04:43:42;;;;;;;6.03;4.35;;;21.20;99.90;;;;;;4990072;28;20490;-63
2023/06/19 04:46:08;;;;;;;6.25;4.97;;;21.40;99.90;;;;;;4980148;28;20038;-63
2023/06/19 04:48:36;;;;;;;4.97;3.78;;;21.50;99.90;;;;;;4989584;28;20206;-63
2023/06/19 04:51:02;;;;;;;7.75;4.53;;;21.60;99.90;;;;;;4984164;28;20440;-66
2023/06/19 04:53:28;;;;;;;6.93;4.70;;;21.60;99.90;;;;;;4991147;28;20022;-65
2023/06/19 04:55:55;;;;;;;5.10;4.07;;;21.50;99.90;;;;;;4990223;28;20038;-65
2023/06/19 04:58:21;;;;;;;5.78;4.18;;;21.50;99.90;;;;;;4989285;28;20133;-64
2023/06/19 05:00:50;;;;;;;6.10;4.18;;;21.50;99.90;;;;;;4985433;28;20053;-64
2023/06/19 05:03:19;;;;;;;7.22;3.72;;;21.50;99.90;;;;;;4991297;28;20023;-64
2023/06/19 05:05:45;;;;;;;5.55;4.05;;;21.50;99.90;;;;;;5011194;23;20046;-66
2023/06/19 05:08:12;;;;;;;5.07;3.85;;;21.30;99.90;;;;;;5000741;28;20033;-66
2023/06/19 05:10:37;;;;;;;8.60;4.25;;;21.30;99.90;;;;;;5002109;28;20030;-66
2023/06/19 05:13:03;;;;;;;6.97;4.22;;;21.30;99.90;;;;;;5006270;28;20034;-64
2023/06/19 05:15:29;;;;;;;4.95;4.10;;;21.10;99.90;;;;;;4997325;28;20069;-66
2023/06/19 05:17:54;;;;;;;6.13;4.10;;;21.00;99.90;;;;;;4992214;28;20105;-67
2023/06/19 05:20:20;;;;;;;8.88;3.90;;;20.90;99.90;;;;;;4988826;28;20026;-65
2023/06/19 05:22:45;;;;;;;6.35;3.53;;;20.80;99.90;;;;;;4995766;28;20482;-66
2023/06/19 05:25:11;;;;;;;6.93;4.18;;;20.70;99.90;;;;;;4988227;28;20106;-65
2023/06/19 05:27:37;;;;;;;6.32;4.50;;;20.60;99.90;;;;;;4990189;28;20900;-66
2023/06/19 05:30:04;;;;;;;7.13;3.90;;;20.60;99.90;;;;;;4977572;28;20029;-67
2023/06/19 05:32:30;;;;;;;5.43;4.35;;;20.50;99.90;;;;;;5040328;28;20467;-67
2023/06/19 05:34:56;;;;;;;5.03;3.75;;;20.50;99.90;;;;;;5041025;28;20026;-67
2023/06/19 05:37:22;;;;;;;4.85;3.58;;;20.50;99.90;;;;;;5035466;28;20028;-68
2023/06/19 05:39:48;;;;;;;9.23;4.03;;;20.60;99.90;;;;;;5040110;28;20624;-67
2023/06/19 05:42:14;;;;;;;5.80;3.63;;;20.70;99.90;;;;;;5023349;28;20564;-67
2023/06/19 05:44:40;;;;;;;8.23;3.88;;;20.90;99.90;;;;;;5029635;28;20038;-68
2023/06/19 05:47:06;;;;;;;5.28;3.95;;;21.10;99.90;;;;;;4991378;28;20037;-67
2023/06/19 05:49:31;;;;;;;6.00;3.90;;;21.40;99.90;;;;;;4986518;28;20053;-68
2023/06/19 05:51:58;;;;;;;4.75;3.22;;;21.60;99.90;;;;;;4985301;28;20496;-68
2023/06/19 05:54:25;;;;;;;4.47;3.47;;;21.60;99.90;;;;;;4987060;28;20174;-68
2023/06/19 05:56:51;;;;;;;5.30;3.58;;;21.80;99.90;;;;;;4985521;28;20023;-68
2023/06/19 05:59:16;;;;;;;5.50;3.22;;;22.30;99.90;;;;;;4987883;28;20101;-68
2023/06/19 06:01:42;;;;;;;4.13;3.08;;;23.40;99.90;;;;;;4986258;28;20249;-66
2023/06/19 06:04:08;;;;;;;4.40;2.70;;;24.70;99.90;;;;;;4985596;28;20105;-65
2023/06/19 06:06:34;;;;;;;5.32;3.55;;;26.10;95.70;;;;;;4990977;28;20037;-67
2023/06/19 06:09:00;;;;;;;7.85;2.58;;;27.50;93.60;;;;;;4992392;28;20026;-66
2023/06/19 06:11:26;;;;;;;5.03;3.25;;;27.40;92.40;;;;;;4984895;28;20506;-66
2023/06/19 06:13:51;;;;;;;5.93;2.83;;;26.80;91.70;;;;;;4987556;28;20046;-66
2023/06/19 06:16:17;;;;;;;4.72;3.85;;;26.20;92.70;;;;;;4985306;28;20202;-68
2023/06/19 06:18:43;;;;;;;4.95;2.88;;;25.70;94.10;;;;;;4989008;28;20022;-67
2023/06/19 06:21:08;;;;;;;5.95;3.38;;;25.30;94.90;;;;;;4982596;28;20048;-69
2023/06/19 06:23:34;;;;;;;7.53;3.50;;;25.10;95.90;;;;;;4987761;28;20034;-66
2023/06/19 06:26:02;;;;;;;6.28;3.38;;;25.00;96.30;;;;;;4983238;28;20144;-67
2023/06/19 06:28:28;;;;;;;4.05;3.08;;;24.60;96.70;;;;;;4979609;28;20062;-67
2023/06/19 06:30:54;;;;;;;8.40;3.50;;;24.40;97.00;;;;;;4981607;28;20522;-66
2023/06/19 06:33:19;;;;;;;5.40;3.10;;;24.10;97.70;;;;;;4987735;28;20402;-68
2023/06/19 06:35:45;;;;;;;5.22;3.20;;;24.10;98.20;;;;;;5001631;28;20030;-67
2023/06/19 06:38:11;;;;;;;4.82;3.58;;;23.70;99.10;;;;;;4995455;28;20027;-67
2023/06/19 06:40:36;;;;;;;7.80;3.40;;;24.20;98.70;;;;;;4985332;28;21897;-67
2023/06/19 06:43:02;;;;;;;8.60;4.03;;;24.60;98.10;;;;;;4988850;28;20034;-66
2023/06/19 06:45:27;;;;;;;4.95;3.22;;;25.70;95.80;;;;;;4989998;28;20029;-67
2023/06/19 06:47:53;;;;;;;3.85;3.20;;;27.00;93.40;;;;;;4988516;28;20034;-66
2023/06/19 06:50:18;;;;;;;6.13;3.25;;;27.60;91.80;;;;;;4983323;28;20034;-65
2023/06/19 06:52:44;;;;;;;4.45;3.75;;;27.20;91.10;;;;;;4987872;28;20045;-65
2023/06/19 06:55:10;;;;;;;5.00;3.35;;;27.10;91.20;;;;;;4989406;28;20030;-65
2023/06/19 06:57:35;;;;;;;4.40;3.33;;;27.60;90.70;;;;;;4992289;28;20383;-66
2023/06/19 07:00:03;;;;;;;5.05;3.50;;;27.90;89.60;;;;;;4983200;28;20451;-64
2023/06/19 07:02:29;;;;;;;4.05;3.00;;;27.50;89.70;;;;;;4985527;28;20062;-65
2023/06/19 07:04:55;;;;;;;5.38;3.45;;;27.20;90.40;;;;;;4990878;28;20070;-66
2023/06/19 07:07:20;;;;;;;7.65;3.58;;;26.80;91.30;;;;;;4999212;28;20062;-66
2023/06/19 07:09:47;;;;;;;5.88;3.83;;;26.60;91.80;;;;;;4989116;28;20558;-66
2023/06/19 07:12:12;;;;;;;3.97;3.00;;;26.40;92.40;;;;;;4988875;28;20443;-66
2023/06/19 07:14:38;;;;;;;4.00;3.15;;;26.10;92.90;;;;;;4987242;28;20030;-66
2023/06/19 07:17:06;;;;;;;4.57;3.33;;;26.10;92.40;;;;;;4997749;28;20034;-66
2023/06/19 07:19:32;;;;;;;3.83;2.75;;;25.90;93.00;;;;;;4989111;28;20058;-66
2023/06/19 07:21:58;;;;;;;3.28;2.70;;;26.60;92.90;;;;;;5017002;28;20065;-66
2023/06/19 07:24:24;;;;;;;4.25;2.78;;;26.80;91.20;;;;;;4985418;28;20050;-67
2023/06/19 07:26:50;;;;;;;4.90;2.90;;;27.40;91.40;;;;;;4985593;28;20613;-67
2023/06/19 07:29:15;;;;;;;7.50;3.00;;;27.60;90.60;;;;;;4985207;28;20045;-67
2023/06/19 07:31:42;;;;;;;4.80;3.08;;;27.80;89.90;;;;;;4995348;28;20101;-67
2023/06/19 07:34:08;;;;;;;5.82;3.10;;;27.60;89.40;;;;;;4989980;28;20023;-66
2023/06/19 07:36:34;;;;;;;6.55;2.92;;;27.20;90.30;;;;;;4995166;28;20042;-68
2023/06/19 07:38:59;;;;;;;3.05;2.40;;;27.30;89.90;;;;;;4991073;28;20550;-67
2023/06/19 07:41:25;;;;;;;3.53;2.42;;;27.20;89.30;;;;;;4992822;28;20455;-67
2023/06/19 07:43:50;;;;;;;3.88;2.20;;;26.90;90.00;;;;;;4989758;28;20035;-66
2023/06/19 07:46:16;;;;;;;6.47;2.65;;;27.30;89.70;;;;;;4994053;28;21858;-67
2023/06/19 07:48:42;;;;;;;3.10;2.30;;;27.50;89.30;;;;;;4989791;28;20035;-66
2023/06/19 07:51:08;;;;;;;3.65;1.88;;;27.60;87.70;;;;;;4991854;28;20093;-67
2023/06/19 07:53:33;;;;;;;3.00;1.60;;;27.50;85.70;;;;;;4988235;28;20032;-66
2023/06/19 07:55:59;;;;;;;5.95;2.20;;;27.30;86.40;;;;;;4991852;28;20443;-67
2023/06/19 07:58:25;;;;;;;2.63;1.73;;;27.50;86.30;;;;;;4988854;28;20105;-66
2023/06/19 08:00:50;;;;;;;2.22;1.80;;;27.60;86.10;;;;;;4991452;28;20134;-66
2023/06/19 08:03:16;;;;;;;3.58;2.05;;;27.70;85.70;;;;;;4991322;28;20113;-66
2023/06/19 08:05:41;;;;;;;2.22;1.85;;;27.50;87.10;;;;;;4993982;28;20065;-66
2023/06/19 08:08:07;;;;;;;4.05;2.25;;;27.80;85.30;;;;;;4998029;28;20032;-65
2023/06/19 08:10:32;;;;;;;3.47;2.28;;;27.60;86.40;;;;;;4992545;28;20022;-66
2023/06/19 08:12:58;;;;;;;5.70;1.85;;;27.70;84.70;;;;;;4989101;28;20070;-66
2023/06/19 08:15:24;;;;;;;5.63;1.77;;;27.40;85.90;;;;;;4984892;28;20035;-65
2023/06/19 08:17:49;;;;;;;3.22;2.13;;;26.90;87.60;;;;;;4999753;28;20037;-66
2023/06/19 08:20:15;;;;;;;2.97;2.03;;;26.50;87.40;;;;;;4996174;28;20037;-66
2023/06/19 08:22:41;;;;;;;2.08;1.70;;;25.90;90.00;;;;;;4989460;28;20026;-66
2023/06/19 08:25:07;;;;;;;2.30;1.73;;;25.50;90.70;;;;;;4995973;28;20027;-66
2023/06/19 08:27:32;;;;;;;1.77;1.33;;;25.20;91.20;;;;;;4993648;28;20049;-66
2023/06/19 08:29:58;;;;;;;2.13;1.30;;;25.50;91.40;;;;;;4988731;28;20162;-66
2023/06/19 08:32:24;;;;;;;1.63;1.10;;;26.00;90.70;;;;;;4992967;28;20115;-66
2023/06/19 08:34:51;;;;;;;2.78;1.52;;;26.60;88.10;;;;;;5002439;28;20091;-65
2023/06/19 08:37:18;;;;;;;1.75;1.10;;;26.90;87.00;;;;;;4988985;28;20026;-66
2023/06/19 08:39:44;;;;;;;1.33;0.75;;;26.90;87.50;;;;;;4990102;28;20026;-65
2023/06/19 08:42:09;;;;;;;3.28;1.15;;;26.80;86.80;;;;;;4993730;28;20034;-66
2023/06/19 08:44:36;;;;;;;0.75;0.73;;;26.80;87.20;;;;;;4990162;28;20030;-64
2023/06/19 08:47:03;;;;;;;1.48;0.90;;;27.70;85.10;;;;;;5012153;28;20120;-66
2023/06/19 08:49:34;;;;;;;1.33;0.90;;;27.90;82.40;;;;;;4993480;28;20056;-66
2023/06/19 08:52:02;;;;;;;2.05;0.50;;;28.50;81.70;;;;;;4992952;28;20427;-66
2023/06/19 08:54:27;;;;;;;0.70;0.70;;;28.60;81.20;;;;;;4991278;28;20030;-66
2023/06/19 08:56:56;;;;;;;1.05;0.80;;;29.00;82.30;;;;;;4980319;28;20050;-66
2023/06/19 08:59:21;;;;;;;5.32;0.90;;;29.00;81.10;;;;;;5015876;28;20037;-66
2023/06/19 09:01:51;;;;;;;2.70;1.05;;;29.50;77.10;;;;;;5016906;28;20038;-65
2023/06/19 09:04:19;;;;;;;1.15;0.80;;;29.70;77.90;;;;;;4994833;28;20399;-65
2023/06/19 09:06:48;;;;;;;1.30;0.90;;;29.50;78.30;;;;;;4996298;28;20068;-66
2023/06/19 09:09:15;;;;;;;1.40;0.90;;;29.00;79.80;;;;;;4990127;28;20109;-66
2023/06/19 09:11:43;;;;;;;1.75;1.25;;;28.70;79.60;;;;;;4986605;28;20042;-65
2023/06/19 09:14:10;;;;;;;3.28;0.90;;;27.90;80.20;;;;;;4985038;28;20039;-65
2023/06/19 09:16:40;;;;;;;1.00;0.88;;;27.90;80.50;;;;;;4991141;28;20022;-66
2023/06/19 09:19:06;;;;;;;4.75;1.20;;;28.20;80.30;;;;;;4980756;28;20109;-66
2023/06/19 09:21:35;;;;;;;1.38;1.00;;;28.20;79.70;;;;;;4989427;28;20391;-66
2023/06/19 09:24:06;;;;;;;0.98;0.90;;;27.90;79.70;;;;;;4992519;28;20090;-66
2023/06/19 09:26:31;;;;;;;1.13;0.93;;;27.40;81.90;;;;;;4992519;28;20034;-66
2023/06/19 09:28:57;;;;;;;3.50;1.10;;;27.10;81.80;;;;;;4992827;28;20023;-65
2023/06/19 09:31:32;;;;;;;1.38;0.93;;;27.00;82.00;;;;;;5002371;28;20087;-66
2023/06/19 09:33:58;;;;;;;1.52;1.10;;;27.10;82.70;;;;;;4993344;28;20499;-65
2023/06/19 09:36:26;;;;;;;2.38;1.40;;;27.10;82.30;;;;;;4989582;28;20021;-66
2023/06/19 09:38:52;;;;;;;1.55;1.15;;;27.20;83.20;;;;;;4991331;28;20033;-66
2023/06/19 09:41:19;;;;;;;2.85;1.00;;;27.30;83.30;;;;;;5005152;28;20034;-66
2023/06/19 09:43:47;;;;;;;1.73;1.20;;;28.00;83.00;;;;;;4989963;28;20446;-66
2023/06/19 09:46:14;;;;;;;1.90;1.20;;;28.90;80.60;;;;;;4991713;28;20487;-66
2023/06/19 09:48:45;;;;;;;2.25;1.10;;;29.60;78.50;;;;;;4993524;28;20789;-67
2023/06/19 09:51:18;;;;;;;1.65;1.10;;;29.90;75.90;;;;;;4996340;28;20037;-66
2023/06/19 09:53:49;;;;;;;2.72;1.10;;;29.30;75.10;;;;;;4992143;28;20682;-66
2023/06/19 09:56:16;;;;;;;3.83;1.83;;;29.20;77.60;;;;;;4990457;28;20030;-66
2023/06/19 09:58:43;;;;;;;2.80;1.35;;;29.10;78.00;;;;;;4986910;28;20137;-66
2023/06/19 10:01:11;;;;;;;9.20;1.50;;;29.10;78.60;;;;;;4988116;28;20049;-66
2023/06/19 10:03:37;;;;;;;1.83;1.45;;;29.20;76.10;;;;;;4981896;28;20074;-66
2023/06/19 10:06:04;;;;;;;1.77;1.23;;;29.40;77.60;;;;;;4982050;28;20038;-65
2023/06/19 10:08:32;;;;;;;2.92;1.60;;;29.80;77.30;;;;;;5009294;28;20043;-66
2023/06/19 10:10:58;;;;;;;1.42;1.02;;;29.50;76.20;;;;;;4989281;28;20034;-66
2023/06/19 10:13:32;;;;;;;6.90;1.23;;;29.50;76.10;;;;;;4992103;28;20022;-66
2023/06/19 10:15:58;;;;;;;1.55;1.10;;;29.30;74.90;;;;;;4993668;28;20033;-66
2023/06/19 10:18:26;;;;;;;4.57;1.30;;;29.00;75.70;;;;;;4993695;28;20030;-66
2023/06/19 10:20:54;;;;;;;3.05;1.50;;;29.20;77.40;;;;;;4989969;28;20037;-65
2023/06/19 10:23:25;;;;;;;2.83;1.40;;;29.20;76.60;;;;;;4987895;28;20107;-67
2023/06/19 10:25:53;;;;;;;2.20;1.38;;;28.80;76.70;;;;;;4991386;28;20030;-67
2023/06/19 10:28:21;;;;;;;3.95;1.60;;;28.70;77.40;;;;;;4987771;28;20022;-68
2023/06/19 10:30:55;;;;;;;2.75;1.42;;;28.60;78.30;;;;;;4989115;28;20165;-68
2023/06/19 10:33:23;;;;;;;4.50;1.50;;;28.60;78.10;;;;;;4987670;28;20034;-68
2023/06/19 10:35:48;;;;;;;7.63;1.42;;;28.50;77.30;;;;;;4989707;28;20026;-68
2023/06/19 10:38:17;;;;;;;4.07;1.77;;;28.50;78.00;;;;;;4983737;28;20046;-67
2023/06/19 10:40:44;;;;;;;3.45;1.58;;;28.40;77.30;;;;;;4988455;28;20034;-67
2023/06/19 10:43:11;;;;;;;2.00;1.50;;;28.40;77.00;;;;;;4990860;28;20392;-67
2023/06/19 10:45:36;;;;;;;3.33;1.80;;;28.80;76.90;;;;;;4990125;28;20031;-68
2023/06/19 10:48:04;;;;;;;3.22;1.77;;;29.00;76.30;;;;;;4990264;28;20027;-67
2023/06/19 10:50:33;;;;;;;3.53;1.90;;;29.10;76.40;;;;;;4983576;28;20038;-68
2023/06/19 10:52:59;;;;;;;2.63;1.92;;;29.20;75.40;;;;;;4987304;28;20037;-67
2023/06/19 10:55:24;;;;;;;2.85;1.90;;;29.40;75.80;;;;;;4999713;28;20034;-67
2023/06/19 10:57:50;;;;;;;2.97;1.52;;;29.60;74.70;;;;;;4999087;28;20026;-67
2023/06/19 11:00:24;;;;;;;2.83;2.00;;;29.30;74.60;;;;;;4988680;28;20026;-68
2023/06/19 11:02:49;;;;;;;4.10;2.08;;;29.60;76.20;;;;;;4977750;28;20044;-68
2023/06/19 11:05:15;;;;;;;7.35;1.92;;;29.10;74.60;;;;;;4989772;28;20022;-68
2023/06/19 11:07:40;;;;;;;3.05;1.80;;;29.20;74.70;;;;;;4986520;28;20049;-67
2023/06/19 11:10:07;;;;;;;2.97;1.77;;;28.80;74.70;;;;;;4988967;28;20052;-67
2023/06/19 11:12:35;;;;;;;2.85;2.05;;;28.60;74.40;;;;;;4987651;28;20034;-68
2023/06/19 11:15:14;;;;;;;2.70;2.03;;;28.60;75.80;;;;;;4987105;28;20034;-68
2023/06/19 11:17:39;;;;;;;4.78;1.98;;;29.10;74.90;;;;;;4984289;28;20045;-67
2023/06/19 11:20:13;;;;;;;2.42;1.58;;;29.40;73.70;;;;;;4988200;28;20038;-65
2023/06/19 11:22:40;;;;;;;2.35;1.70;;;29.30;73.30;;;;;;4982837;28;20599;-68
2023/06/19 11:25:08;;;;;;;2.53;2.00;;;29.50;74.60;;;;;;4982205;28;20064;-67
2023/06/19 11:27:36;;;;;;;4.82;1.52;;;29.80;72.40;;;;;;4982259;28;20488;-68
2023/06/19 11:30:06;;;;;;;7.20;2.20;;;30.10;73.80;;;;;;4986370;28;20046;-68
2023/06/19 11:32:40;;;;;;;4.57;1.80;;;29.60;75.20;;;;;;4987634;28;20041;-67
2023/06/19 11:35:07;;;;;;;4.78;2.15;;;29.70;72.80;;;;;;4984015;28;20140;-68
2023/06/19 11:37:34;;;;;;;4.75;2.22;;;29.70;71.50;;;;;;4991050;28;20026;-68
2023/06/19 11:40:00;;;;;;;5.93;2.80;;;29.70;72.60;;;;;;4988683;28;20049;-67
2023/06/19 11:42:26;;;;;;;4.18;2.90;;;29.40;72.30;;;;;;4991991;28;20022;-68
2023/06/19 11:44:56;;;;;;;3.42;2.20;;;29.60;71.90;;;;;;4981772;28;20690;-67
2023/06/19 11:47:22;;;;;;;3.00;1.98;;;30.00;71.90;;;;;;4983930;28;20039;-67
2023/06/19 11:49:49;;;;;;;2.53;2.05;;;30.50;71.80;;;;;;4986420;28;20039;-68
2023/06/19 11:52:15;;;;;;;5.63;2.20;;;30.40;72.60;;;;;;4988585;28;20030;-67
2023/06/19 11:54:41;;;;;;;7.32;2.03;;;29.80;71.60;;;;;;4984553;28;20061;-67
2023/06/19 11:57:06;;;;;;;4.60;2.47;;;29.70;73.50;;;;;;4984824;28;20030;-68
2023/06/19 11:59:32;;;;;;;3.53;2.25;;;29.80;72.70;;;;;;4980099;28;20033;-67
2023/06/19 12:01:59;;;;;;;4.85;2.47;;;29.50;71.40;;;;;;4982094;28;20049;-68
2023/06/19 12:04:25;;;;;;;3.58;2.88;;;29.60;72.70;;;;;;4988286;28;20053;-67
2023/06/19 12:06:52;;;;;;;5.10;2.35;;;29.60;72.50;;;;;;4988187;28;20030;-68
2023/06/19 12:09:18;;;;;;;6.90;2.60;;;29.80;70.90;;;;;;4985424;28;20152;-68
2023/06/19 12:11:44;;;;;;;5.22;2.55;;;29.50;70.90;;;;;;4984546;28;20479;-67
2023/06/19 12:14:09;;;;;;;5.82;2.55;;;29.40;72.90;;;;;;4982438;28;20058;-68
2023/06/19 12:16:35;;;;;;;8.55;2.35;;;29.30;74.60;;;;;;4988000;28;20541;-68
2023/06/19 12:19:01;;;;;;;3.05;2.05;;;29.40;72.10;;;;;;4984308;28;20034;-67
2023/06/19 12:21:26;;;;;;;3.35;2.33;;;29.50;70.80;;;;;;4983323;28;20150;-67
2023/06/19 12:23:52;;;;;;;3.35;2.25;;;29.50;70.00;;;;;;4989035;28;20125;-68
2023/06/19 12:26:17;;;;;;;4.40;2.42;;;29.80;71.00;;;;;;4983940;28;20030;-68
2023/06/19 12:28:43;;;;;;;4.57;2.50;;;29.80;71.20;;;;;;4990197;28;20034;-67
2023/06/19 12:31:09;;;;;;;4.40;2.85;;;29.80;70.80;;;;;;4990520;28;20105;-68
2023/06/19 12:33:36;;;;;;;6.22;2.95;;;29.90;69.60;;;;;;5014283;28;20476;-66
2023/06/19 12:36:02;;;;;;;6.95;2.85;;;30.10;69.60;;;;;;4983530;28;20030;-68
2023/06/19 12:38:28;;;;;;;3.92;2.65;;;29.80;68.90;;;;;;4990117;28;20154;-67
2023/06/19 12:40:53;;;;;;;5.00;2.70;;;29.50;71.00;;;;;;4996312;28;20695;-67
2023/06/19 12:43:19;;;;;;;3.45;2.53;;;29.50;70.90;;;;;;4984088;28;20026;-68
2023/06/19 12:45:46;;;;;;;6.05;2.45;;;29.60;69.70;;;;;;4988064;28;20031;-68
2023/06/19 12:48:17;;;;;;;3.00;2.28;;;29.30;70.60;;;;;;4991786;28;20050;-66
2023/06/19 12:50:42;;;;;;;14.40;4.18;;;29.50;69.20;;;;;;4986853;28;20038;-67